CheckWX is a tool to help pilots better visualize weather data.  It is not intended as a substitute for an official pre-flight weather briefing.

09:02:58 UTC

FQLC METAR
Lichinga Airport
Lichinga, Mozambique
Current

1 hour ago

FQLC 230800Z 14004KT 060V100 9999 FEW015 20/15 Q1023
Observed
Apr-23 @ 08:00 UTC
Wind
  • 140° at 4 KTS
Visibility
10,000+ meters
Flight Rules
VFR
Cloud Levels
  • Few at 1,500' AGL
Temperature
20°C / 68°F
Dewpoint
15°C / 59°F
Humidity
73%
Altimeter
30.21" Hg
Pressure
1022.92 hPa
Previous

2 hours ago

FQLC 230700Z 14008KT 9999 FEW014 19/14 Q1022
Observed
Apr-23 @ 07:00 UTC
Wind
  • 140° at 8 KTS
Visibility
10,000+ meters
Flight Rules
VFR
Cloud Levels
  • Few at 1,400' AGL
Temperature
19°C / 66°F
Dewpoint
14°C / 57°F
Humidity
73%
Altimeter
30.18" Hg
Pressure
1021.92 hPa
Previous

3 hours ago

FQLC 230600Z 14011KT 9999 FEW014 17/15 Q1022
Observed
Apr-23 @ 06:00 UTC
Wind
  • 140° at 11 KTS
Visibility
10,000+ meters
Flight Rules
VFR
Cloud Levels
  • Few at 1,400' AGL
Temperature
17°C / 63°F
Dewpoint
15°C / 59°F
Humidity
88%
Altimeter
30.18" Hg
Pressure
1021.92 hPa